This is the latest recevied weather packets stored in our database for station/object EA3CH. If no packets are shown the sender has not sent any weather packets the latest 10 day(s).
| Time | Temp. | Humidity | Pressure | Rain* | Wind** | Luminosity | Snow |
|---|---|---|---|---|---|---|---|
| 1787844607 | 32.22° C | 29% | 1013.5 hPa | 0 mm | - | 0 W/m² | - |
| 1787844604 | 32.22° C | 38% | 1013.7 hPa | 0 mm | - | 0 W/m² | - |
| 1787843703 | 32.22° C | 36% | 1013.6 hPa | 0 mm | - | 0 W/m² | - |
| 1787842806 | 33.33° C | 26% | 1013.5 hPa | 0 mm | - | 0 W/m² | - |
| 1787842804 | 33.33° C | 35% | 1013.9 hPa | 0 mm | - | 0 W/m² | - |
| 1787841906 | 33.89° C | 25% | 1013.6 hPa | 0 mm | - | 0 W/m² | - |
| 1787841904 | 33.33° C | 35% | 1013.8 hPa | 0 mm | - | 0 W/m² | - |
| 1787841006 | 33.33° C | 26% | 1013.5 hPa | 0 mm | - | 0 W/m² | - |
| 1787841004 | 33.33° C | 36% | 1013.7 hPa | 0 mm | - | 0 W/m² | - |
| 1787840104 | 32.78° C | 38% | 1014 hPa | 0 mm | - | 0 W/m² | - |
| 1787839207 | 32.78° C | 47% | 1013.6 hPa | 0 mm | - | 0 W/m² | - |
| 1787839204 | 32.22° C | 56% | 1013.8 hPa | 0 mm | - | 0 W/m² | - |
| 1787838303 | 32.78° C | 52% | 1013.8 hPa | 0 mm | - | 0 W/m² | - |
| 1787837404 | 32.78° C | 53% | 1013.9 hPa | 0 mm | - | 0 W/m² | - |
| 1787836504 | 32.78° C | 47% | 1013.7 hPa | 0 mm | - | 0 W/m² | - |
| 1787835607 | 32.78° C | 36% | 1013.6 hPa | 0 mm | - | 0 W/m² | - |
| 1787835604 | 32.78° C | 45% | 1013.8 hPa | 0 mm | - | 0 W/m² | - |
| 1787834704 | 32.78° C | 41% | 1013.8 hPa | 0 mm | - | 0 W/m² | - |
| 1787833807 | 32.78° C | 34% | 1013.7 hPa | 0 mm | - | 0 W/m² | - |
| 1787833804 | 32.78° C | 43% | 1013.8 hPa | 0 mm | - | 0 W/m² | - |
| 1787832904 | 32.22° C | 46% | 1013.8 hPa | 0 mm | - | 0 W/m² | - |
| 1787832004 | 31.67° C | 56% | 1013.8 hPa | 0 mm | - | 0 W/m² | - |
| 1787831104 | 31.11° C | 58% | 1013.9 hPa | 0 mm | - | 0 W/m² | - |
| 1787830208 | 30.56° C | 59% | 1014 hPa | 0 mm | - | 0 W/m² | - |
| 1787829306 | 30.56° C | 49% | 1014 hPa | 0 mm | - | 0 W/m² | - |
* Rain latest hour (hover to see other rain measurements)
** Current wind speed in m/s (hover to see current wind gust speed)